createdAt,value
2023-02-24T00:03:44.937Z,8.71
2023-02-24T00:08:47.313Z,8.66
2023-02-24T00:13:48.839Z,8.60
2023-02-24T00:18:51.056Z,8.53
2023-02-24T00:23:53.560Z,8.50
2023-02-24T00:28:55.894Z,8.43
2023-02-24T00:33:59.280Z,8.36
2023-02-24T00:39:09.342Z,8.26
2023-02-24T00:44:14.305Z,8.20
2023-02-24T00:49:18.443Z,8.15
2023-02-24T00:54:20.661Z,8.14
2023-02-24T00:59:23.995Z,8.14
2023-02-24T01:04:29.209Z,8.08
2023-02-24T01:09:32.213Z,7.98
2023-02-24T01:14:34.748Z,7.92
2023-02-24T01:19:36.707Z,7.87
2023-02-24T01:24:40.166Z,7.86
2023-02-24T01:29:41.610Z,7.82
2023-02-24T01:34:44.122Z,7.75
2023-02-24T01:39:46.130Z,7.76
2023-02-24T01:44:47.842Z,7.79
2023-02-24T01:49:53.871Z,7.83
2023-02-24T01:54:55.403Z,7.82
2023-02-24T02:00:09.375Z,7.80
2023-02-24T02:05:15.134Z,7.77
2023-02-24T02:10:18.371Z,7.81
2023-02-24T02:15:20.526Z,7.82
2023-02-24T02:20:22.257Z,7.78
2023-02-24T02:25:57.974Z,7.78
2023-02-24T02:31:08.127Z,7.78
2023-02-24T02:36:31.172Z,7.79
2023-02-24T02:41:43.339Z,7.89
2023-02-24T02:46:51.033Z,7.91
2023-02-24T02:51:57.295Z,7.82
2023-02-24T02:57:14.571Z,7.78
2023-02-24T03:02:21.035Z,7.76
2023-02-24T03:07:31.172Z,7.68
2023-02-24T03:12:34.049Z,7.59
2023-02-24T03:17:42.292Z,7.51
2023-02-24T03:22:53.353Z,7.46
2023-02-24T03:27:58.452Z,7.44
2023-02-24T03:33:16.614Z,7.38
2023-02-24T03:38:23.141Z,7.21
2023-02-24T03:43:31.742Z,6.97
2023-02-24T03:48:43.753Z,6.83
2023-02-24T03:54:05.601Z,6.78
2023-02-24T03:59:23.588Z,6.72
2023-02-24T04:04:37.943Z,6.71
2023-02-24T04:10:04.609Z,6.63
2023-02-24T04:15:29.008Z,6.59
2023-02-24T04:20:34.256Z,6.59
2023-02-24T04:25:40.665Z,6.55
2023-02-24T04:30:48.309Z,6.43
2023-02-24T04:35:50.519Z,6.38
2023-02-24T04:40:52.447Z,6.35
2023-02-24T04:45:55.556Z,6.38
2023-02-24T04:51:02.383Z,6.45
2023-02-24T04:56:08.759Z,6.54
2023-02-24T05:01:10.918Z,6.58
2023-02-24T05:06:17.556Z,6.57
2023-02-24T05:11:19.450Z,6.51
2023-02-24T05:16:22.118Z,6.40
2023-02-24T05:21:35.627Z,6.35
2023-02-24T05:26:41.525Z,6.25
2023-02-24T05:31:43.365Z,6.00
2023-02-24T05:36:45.791Z,5.70
2023-02-24T05:41:49.608Z,5.52
2023-02-24T05:46:58.560Z,5.42
2023-02-24T05:52:08.640Z,5.43
2023-02-24T05:57:12.981Z,5.40
2023-02-24T06:02:17.442Z,5.28
2023-02-24T06:07:29.517Z,5.20
2023-02-24T06:12:39.730Z,5.15
2023-02-24T06:17:41.277Z,5.17
2023-02-24T06:22:42.720Z,5.16
2023-02-24T06:27:44.184Z,5.36
2023-02-24T06:32:45.697Z,5.44
2023-02-24T06:37:47.871Z,5.43
2023-02-24T06:42:55.144Z,5.32
2023-02-24T06:47:58.183Z,5.09
2023-02-24T06:53:00.614Z,4.83
2023-02-24T06:58:08.229Z,4.72
2023-02-24T07:03:15.082Z,4.66
2023-02-24T07:08:18.815Z,4.59
2023-02-24T07:13:20.233Z,4.50
2023-02-24T07:18:22.819Z,4.42
2023-02-24T07:23:24.306Z,4.31
2023-02-24T07:28:25.722Z,4.27
2023-02-24T07:33:27.925Z,4.25
2023-02-24T07:38:29.373Z,4.19
2023-02-24T07:43:30.807Z,3.95
2023-02-24T07:48:32.196Z,3.50
2023-02-24T07:53:34.794Z,3.35
2023-02-24T07:58:36.245Z,3.41
2023-02-24T08:03:41.394Z,3.45
2023-02-24T08:08:57.769Z,3.54
2023-02-24T08:13:59.200Z,3.56
2023-02-24T08:19:03.319Z,3.59
2023-02-24T08:24:05.911Z,3.66
2023-02-24T08:29:07.361Z,3.75
2023-02-24T08:34:08.779Z,4.05
2023-02-24T08:39:10.196Z,4.27
2023-02-24T08:44:12.845Z,4.36
2023-02-24T08:49:16.924Z,4.25
2023-02-24T08:54:26.939Z,4.14
2023-02-24T08:59:54.612Z,4.15
2023-02-24T09:05:03.627Z,4.42
2023-02-24T09:10:17.592Z,4.54
2023-02-24T09:15:20.526Z,4.68
2023-02-24T09:20:43.191Z,4.69
2023-02-24T09:25:44.867Z,4.70
2023-02-24T09:30:51.593Z,4.86
2023-02-24T09:36:12.771Z,5.17
2023-02-24T09:41:31.562Z,5.45
2023-02-24T09:46:53.618Z,5.75
2023-02-24T09:52:00.549Z,6.08
2023-02-24T09:57:10.615Z,6.37
2023-02-24T10:02:44.221Z,6.53
2023-02-24T10:07:47.073Z,6.63
2023-02-24T10:12:52.891Z,6.72
2023-02-24T10:17:57.918Z,6.86
2023-02-24T10:23:32.681Z,6.94
2023-02-24T10:28:54.084Z,7.01
2023-02-24T10:34:10.977Z,7.25
2023-02-24T10:39:20.327Z,7.29
2023-02-24T10:44:24.204Z,7.15
2023-02-24T10:49:26.711Z,7.05
2023-02-24T10:54:52.964Z,7.06
2023-02-24T11:00:18.178Z,7.11
2023-02-24T11:05:38.604Z,7.12
2023-02-24T11:10:53.070Z,6.97
2023-02-24T11:16:14.096Z,7.22
2023-02-24T11:21:17.003Z,7.31
2023-02-24T11:26:21.800Z,7.52
2023-02-24T11:31:45.413Z,7.59
2023-02-24T11:36:57.253Z,7.38
2023-02-24T11:42:05.268Z,7.26
2023-02-24T11:47:15.282Z,7.19
2023-02-24T11:52:23.579Z,7.21
2023-02-24T11:57:41.577Z,7.30
2023-02-24T12:03:06.718Z,7.52
2023-02-24T12:08:29.657Z,7.53
2023-02-24T12:13:49.018Z,7.27
2023-02-24T12:18:59.070Z,7.06
2023-02-24T12:24:01.377Z,6.91
2023-02-24T12:29:29.949Z,6.85
2023-02-24T12:34:47.241Z,6.75
2023-02-24T12:39:58.521Z,6.77
2023-02-24T12:45:12.659Z,6.71
2023-02-24T12:50:23.488Z,6.68
2023-02-24T12:55:42.589Z,6.67
2023-02-24T13:00:57.499Z,6.71
2023-02-24T13:06:09.713Z,6.68
2023-02-24T13:11:39.794Z,6.75
2023-02-24T13:16:41.934Z,6.84
2023-02-24T13:21:43.663Z,7.06
2023-02-24T13:26:45.117Z,7.22
2023-02-24T13:31:52.155Z,7.36
2023-02-24T13:36:53.672Z,7.50
2023-02-24T13:42:20.363Z,7.60
2023-02-24T13:47:24.841Z,7.62
2023-02-24T13:52:32.594Z,7.56
2023-02-24T13:57:58.973Z,7.54
2023-02-24T14:03:00.789Z,7.52
2023-02-24T14:08:04.687Z,7.43
2023-02-24T14:13:27.563Z,7.13
2023-02-24T14:18:29.888Z,6.60
2023-02-24T14:23:33.986Z,6.28
2023-02-24T14:28:37.667Z,6.06
2023-02-24T14:33:42.617Z,5.99
2023-02-24T14:38:45.084Z,5.95
2023-02-24T14:43:46.514Z,5.95
2023-02-24T14:48:56.162Z,5.99
2023-02-24T14:54:01.965Z,5.98
2023-02-24T14:59:23.168Z,6.11
2023-02-24T15:04:33.532Z,6.12
2023-02-24T15:09:42.616Z,6.17
2023-02-24T15:14:51.710Z,6.20
2023-02-24T15:19:56.022Z,6.21
2023-02-24T15:25:12.548Z,6.22
2023-02-24T15:30:35.904Z,6.23
2023-02-24T15:35:46.653Z,6.20
2023-02-24T15:40:57.461Z,6.20
2023-02-24T15:45:58.999Z,6.12
2023-02-24T15:51:05.126Z,6.05
2023-02-24T15:56:06.577Z,5.95
2023-02-24T16:01:10.849Z,5.70
2023-02-24T16:06:21.190Z,5.25
2023-02-24T16:11:26.454Z,5.03
2023-02-24T16:16:28.200Z,4.90
2023-02-24T16:21:30.107Z,4.75
2023-02-24T16:26:36.103Z,4.69
2023-02-24T16:31:39.153Z,4.72
2023-02-24T16:36:42.384Z,4.59
2023-02-24T16:41:43.735Z,4.53
2023-02-24T16:46:45.836Z,4.47
2023-02-24T16:51:47.282Z,4.42
2023-02-24T16:56:49.645Z,4.37
2023-02-24T17:01:51.106Z,4.37
2023-02-24T17:06:52.617Z,4.44
2023-02-24T17:11:54.030Z,4.45
2023-02-24T17:16:55.618Z,4.48
2023-02-24T17:21:57.138Z,4.47
2023-02-24T17:26:59.783Z,4.47
2023-02-24T17:32:01.461Z,4.50
2023-02-24T17:37:04.246Z,4.50
2023-02-24T17:42:06.038Z,4.44
2023-02-24T17:47:08.918Z,4.42
2023-02-24T17:52:10.540Z,4.33
2023-02-24T17:57:12.000Z,4.33
2023-02-24T18:02:15.600Z,4.25
2023-02-24T18:07:17.640Z,4.15
2023-02-24T18:12:20.769Z,4.10
2023-02-24T18:17:23.351Z,4.00
2023-02-24T18:22:25.371Z,3.95
2023-02-24T18:27:27.092Z,3.99
2023-02-24T18:32:28.837Z,3.93
2023-02-24T18:37:30.481Z,3.86
2023-02-24T18:42:32.276Z,3.77
2023-02-24T18:47:33.680Z,3.68
2023-02-24T18:52:35.205Z,3.65
2023-02-24T18:57:36.986Z,3.68
2023-02-24T19:02:38.684Z,3.68
2023-02-24T19:07:40.253Z,3.70
2023-02-24T19:12:41.711Z,3.76
2023-02-24T19:17:44.096Z,3.68
2023-02-24T19:22:45.613Z,3.63
2023-02-24T19:27:49.760Z,3.61
2023-02-24T19:32:51.495Z,3.45
2023-02-24T19:37:53.136Z,3.21
2023-02-24T19:42:54.623Z,3.16
2023-02-24T19:47:56.211Z,3.19
2023-02-24T19:52:57.788Z,3.34
2023-02-24T19:57:59.427Z,3.39
2023-02-24T20:03:00.919Z,3.40
2023-02-24T20:08:02.605Z,3.44
2023-02-24T20:13:04.970Z,3.45
2023-02-24T20:18:08.658Z,3.50
2023-02-24T20:23:10.097Z,3.57
2023-02-24T20:28:11.767Z,3.61
2023-02-24T20:33:13.249Z,3.67
2023-02-24T20:38:15.231Z,3.70
2023-02-24T20:43:16.675Z,3.74
2023-02-24T20:48:18.459Z,3.77
2023-02-24T20:53:19.925Z,3.79
2023-02-24T20:58:21.430Z,3.80
2023-02-24T21:03:24.250Z,3.86
2023-02-24T21:08:25.676Z,3.94
2023-02-24T21:13:27.165Z,3.89
2023-02-24T21:18:28.668Z,3.90
2023-02-24T21:23:30.668Z,3.90
2023-02-24T21:28:32.330Z,3.91
2023-02-24T21:33:34.520Z,3.92
2023-02-24T21:38:36.976Z,3.93
2023-02-24T21:43:39.034Z,3.96
2023-02-24T21:48:41.626Z,3.97
2023-02-24T21:53:44.366Z,3.97
2023-02-24T21:58:48.895Z,4.00
2023-02-24T22:03:57.272Z,4.01
2023-02-24T22:09:00.039Z,4.04
2023-02-24T22:14:01.662Z,3.99
2023-02-24T22:19:03.995Z,3.98
2023-02-24T22:24:05.694Z,4.00
2023-02-24T22:29:07.741Z,4.03
2023-02-24T22:34:09.276Z,3.97
2023-02-24T22:39:10.948Z,3.91
2023-02-24T22:44:14.129Z,3.93
2023-02-24T22:49:15.482Z,3.91
2023-02-24T22:54:17.593Z,3.90
2023-02-24T22:59:18.991Z,3.90
2023-02-24T23:04:20.474Z,3.92
2023-02-24T23:09:21.924Z,3.77
2023-02-24T23:14:23.345Z,3.77
2023-02-24T23:19:25.519Z,3.79
2023-02-24T23:24:26.918Z,3.81
2023-02-24T23:29:30.654Z,3.83
2023-02-24T23:34:32.130Z,3.73
2023-02-24T23:39:33.548Z,3.63
2023-02-24T23:44:37.584Z,3.57
2023-02-24T23:49:48.275Z,3.29
2023-02-24T23:54:50.663Z,3.00
2023-02-24T23:59:52.196Z,2.86
